Time;durP1;ratioP1;P1;durP2;ratioP2;P2;SDS_P1;SDS_P2;PMS_P1;PMS_P2;Temp;Humidity;BMP_temperature;BMP_pressure;BME280_temperature;BME280_humidity;BME280_pressure;Samples;Min_cycle;Max_cycle;Signal;HPM_P1;HPM_P2
2023/07/28 00:02:23;;;;;;;20.40;15.82;;;;;;;22.44;76.08;98249.97;5057624;28;20040;-53
2023/07/28 00:04:48;;;;;;;19.92;15.77;;;;;;;22.53;75.82;98247.75;5073550;28;20032;-53
2023/07/28 00:07:14;;;;;;;17.52;14.32;;;;;;;22.57;75.11;98243.47;5074717;28;20349;-49
2023/07/28 00:09:39;;;;;;;18.10;16.02;;;;;;;22.58;75.40;98245.13;5074392;28;20045;-61
2023/07/28 00:12:05;;;;;;;18.63;16.35;;;;;;;22.55;75.41;98251.06;5075423;28;20032;-55
2023/07/28 00:14:31;;;;;;;20.75;15.73;;;;;;;22.51;75.64;98251.53;5075457;28;20036;-56
2023/07/28 00:16:57;;;;;;;20.67;16.65;;;;;;;22.35;75.57;98235.88;5075226;28;20078;-52
2023/07/28 00:19:23;;;;;;;19.67;17.00;;;;;;;22.50;76.06;98268.97;5075190;28;20047;-56
2023/07/28 00:21:49;;;;;;;19.88;16.90;;;;;;;22.49;75.82;98272.78;5074790;28;20029;-54
2023/07/28 00:24:15;;;;;;;21.65;17.25;;;;;;;22.57;75.71;98287.09;5074811;28;20028;-53
2023/07/28 00:26:41;;;;;;;23.95;17.17;;;;;;;22.55;75.93;98289.25;5074934;28;20102;-55
2023/07/28 00:29:07;;;;;;;20.45;16.25;;;;;;;22.54;75.83;98284.84;5074562;28;20400;-52
2023/07/28 00:31:33;;;;;;;21.02;17.73;;;;;;;22.37;75.88;98278.22;5074063;28;20048;-65
2023/07/28 00:33:59;;;;;;;20.73;18.30;;;;;;;22.44;76.29;98278.09;5073971;28;20032;-53
2023/07/28 00:36:25;;;;;;;22.85;17.42;;;;;;;22.45;76.42;98285.22;5073781;28;20021;-55
2023/07/28 00:38:50;;;;;;;23.13;17.58;;;;;;;22.27;76.22;98269.78;5073760;28;20029;-64
2023/07/28 00:41:16;;;;;;;21.85;18.08;;;;;;;22.40;76.22;98295.16;5071710;28;20412;-55
2023/07/28 00:43:42;;;;;;;23.42;18.52;;;;;;;22.33;76.74;98292.56;5073102;28;20021;-54
2023/07/28 00:46:09;;;;;;;21.40;18.52;;;;;;;22.26;77.22;98294.59;5072929;28;20111;-56
2023/07/28 00:48:34;;;;;;;22.80;18.30;;;;;;;22.21;77.10;98274.31;5073355;28;20054;-56
2023/07/28 00:51:00;;;;;;;22.50;18.70;;;;;;;22.18;77.38;98269.31;5073336;28;20437;-52
2023/07/28 00:53:26;;;;;;;25.98;18.73;;;;;;;22.16;77.57;98270.66;5073244;28;20032;-55
2023/07/28 00:55:52;;;;;;;21.83;18.08;;;;;;;22.12;77.85;98261.31;5073866;28;20433;-56
2023/07/28 00:58:18;;;;;;;22.23;18.60;;;;;;;22.10;77.69;98260.72;5073817;28;20046;-54
2023/07/28 01:00:43;;;;;;;22.58;18.40;;;;;;;22.07;77.67;98262.00;5074092;28;20111;-53
2023/07/28 01:03:09;;;;;;;19.92;17.00;;;;;;;21.97;77.81;98243.53;5073951;28;20119;-54
2023/07/28 01:06:02;;;;;;;24.50;17.27;;;;;;;22.11;77.96;98257.72;5074429;28;20127;-64
2023/07/28 01:08:42;;;;;;;18.52;16.52;;;;;;;22.06;77.78;98260.34;5074132;28;20048;-53
2023/07/28 01:11:08;;;;;;;22.35;16.42;;;;;;;21.93;77.37;98261.41;5073990;28;20049;-50
2023/07/28 01:13:34;;;;;;;18.42;16.52;;;;;;;21.91;77.30;98252.66;5074041;28;20109;-52
2023/07/28 01:16:00;;;;;;;17.65;15.43;;;;;;;21.89;77.61;98252.88;5074433;28;20025;-56
2023/07/28 01:18:27;;;;;;;19.55;15.25;;;;;;;21.85;76.97;98253.59;5074285;28;20056;-52
2023/07/28 01:20:57;;;;;;;20.95;16.05;;;;;;;21.88;77.24;98251.22;5073722;28;20025;-51
2023/07/28 01:23:55;;;;;;;18.75;16.25;;;;;;;21.97;77.71;98246.25;5073878;28;20439;-54
2023/07/28 01:26:48;;;;;;;18.73;15.65;;;;;;;22.01;77.10;98246.59;5074094;28;20044;-51
2023/07/28 01:29:15;;;;;;;17.60;15.73;;;;;;;21.85;76.66;98243.53;5071228;28;20103;-53
2023/07/28 01:31:41;;;;;;;20.52;15.25;;;;;;;21.82;76.51;98227.66;5073308;28;20028;-55
2023/07/28 01:34:06;;;;;;;22.58;15.38;;;;;;;21.85;76.63;98221.72;5073578;28;20115;-65
2023/07/28 01:36:32;;;;;;;21.20;15.65;;;;;;;21.87;76.70;98219.59;5074173;28;20036;-54
2023/07/28 01:38:57;;;;;;;17.30;15.13;;;;;;;21.93;76.22;98218.63;5073101;28;20032;-54
2023/07/28 01:41:23;;;;;;;15.80;14.20;;;;;;;21.97;75.75;98224.44;5073537;28;20032;-55
2023/07/28 01:43:48;;;;;;;18.67;15.05;;;;;;;22.03;75.37;98211.78;5073741;28;20025;-56
2023/07/28 01:46:14;;;;;;;17.52;14.15;;;;;;;22.05;75.35;98223.25;5073817;28;20168;-56
2023/07/28 01:48:39;;;;;;;17.48;15.73;;;;;;;22.11;74.80;98219.56;5072488;28;20113;-53
2023/07/28 01:51:05;;;;;;;18.40;16.13;;;;;;;22.15;75.00;98223.47;5073501;28;20032;-57
2023/07/28 01:53:30;;;;;;;23.38;15.95;;;;;;;22.15;74.94;98215.28;5072982;28;20479;-52
2023/07/28 01:55:56;;;;;;;19.67;16.38;;;;;;;22.20;74.87;98212.72;5072609;28;20028;-55
2023/07/28 01:58:22;;;;;;;18.00;15.65;;;;;;;22.21;74.93;98208.06;5072241;28;20120;-53
2023/07/28 02:00:47;;;;;;;18.83;15.63;;;;;;;22.26;74.76;98200.00;5071973;28;20029;-51
2023/07/28 02:03:13;;;;;;;18.42;15.45;;;;;;;22.20;74.31;98201.81;5072149;28;20496;-56
2023/07/28 02:05:38;;;;;;;17.60;15.23;;;;;;;22.29;74.29;98209.59;5072524;28;20021;-63
2023/07/28 02:08:04;;;;;;;17.65;15.07;;;;;;;22.27;74.16;98198.91;5073175;28;20136;-54
2023/07/28 02:10:30;;;;;;;20.48;15.95;;;;;;;22.33;74.22;98217.06;5072732;28;20381;-53
2023/07/28 02:12:56;;;;;;;19.67;14.77;;;;;;;22.37;73.89;98223.69;5072148;28;20063;-58
2023/07/28 02:15:22;;;;;;;16.77;14.93;;;;;;;22.37;73.72;98218.22;5072493;28;20533;-55
2023/07/28 02:17:49;;;;;;;19.17;15.15;;;;;;;22.42;73.86;98209.31;5087593;28;20171;-55
2023/07/28 02:20:15;;;;;;;20.00;14.52;;;;;;;22.44;73.37;98207.19;5073148;28;20457;-54
2023/07/28 02:22:44;;;;;;;16.05;14.40;;;;;;;22.49;73.38;98210.06;5071969;28;20475;-54
2023/07/28 02:25:10;;;;;;;17.73;15.93;;;;;;;22.52;73.20;98216.91;5072648;28;20523;-66
2023/07/28 02:27:37;;;;;;;18.02;14.95;;;;;;;22.57;73.19;98206.13;5073191;28;20032;-54
2023/07/28 02:30:03;;;;;;;18.88;15.45;;;;;;;22.61;72.95;98214.63;5072673;28;20039;-57
2023/07/28 02:32:32;;;;;;;20.65;16.27;;;;;;;22.62;73.55;98213.56;5072197;28;20044;-54
2023/07/28 02:34:58;;;;;;;23.15;16.58;;;;;;;22.61;73.47;98218.19;5072204;28;20036;-56
2023/07/28 02:37:24;;;;;;;19.40;16.83;;;;;;;22.63;73.77;98226.97;5071642;28;20044;-57
2023/07/28 02:39:50;;;;;;;18.10;16.13;;;;;;;22.61;73.28;98237.28;5072245;28;20043;-53
2023/07/28 02:42:15;;;;;;;21.30;15.75;;;;;;;22.61;73.28;98231.00;5072749;28;20033;-55
2023/07/28 02:44:41;;;;;;;22.67;16.52;;;;;;;22.62;73.30;98238.94;5072560;28;20036;-59
2023/07/28 02:47:06;;;;;;;20.48;15.52;;;;;;;22.57;73.26;98243.47;5072629;28;20365;-56
2023/07/28 02:49:32;;;;;;;19.27;15.98;;;;;;;22.61;73.26;98255.53;5071661;28;20096;-54
2023/07/28 02:51:58;;;;;;;18.67;15.90;;;;;;;22.59;72.91;98271.31;5071336;28;20036;-55
2023/07/28 02:54:25;;;;;;;18.23;15.88;;;;;;;22.39;72.96;98241.69;5071804;28;20020;-55
2023/07/28 02:56:51;;;;;;;18.20;14.75;;;;;;;22.56;72.97;98259.00;5072266;28;20040;-55
2023/07/28 02:59:17;;;;;;;19.95;15.32;;;;;;;22.57;72.65;98248.91;5071277;28;20107;-54
2023/07/28 03:01:42;;;;;;;18.38;15.60;;;;;;;22.60;72.83;98254.72;5072735;28;20483;-54
2023/07/28 03:04:08;;;;;;;18.20;15.40;;;;;;;22.62;73.06;98260.75;5072539;28;20030;-56
2023/07/28 03:06:33;;;;;;;16.42;14.75;;;;;;;22.67;72.58;98243.69;5072040;28;20040;-56
2023/07/28 03:08:59;;;;;;;17.40;15.38;;;;;;;22.50;72.35;98194.50;5071902;28;20041;-53
2023/07/28 03:11:25;;;;;;;16.60;14.77;;;;;;;22.72;72.54;98227.41;5072266;28;20049;-52
2023/07/28 03:13:50;;;;;;;19.55;15.85;;;;;;;22.77;72.10;98238.41;5072106;28;20095;-55
2023/07/28 03:16:16;;;;;;;22.08;15.82;;;;;;;22.81;71.92;98255.16;5072291;28;20035;-53
2023/07/28 03:18:41;;;;;;;16.95;15.02;;;;;;;22.91;71.65;98281.81;5072692;28;20025;-54
2023/07/28 03:21:09;;;;;;;16.92;14.45;;;;;;;22.98;71.50;98304.31;5071658;28;20032;-50
2023/07/28 03:23:35;;;;;;;21.48;15.30;;;;;;;23.04;71.17;98308.78;5071416;28;20028;-57
2023/07/28 03:26:00;;;;;;;18.48;14.38;;;;;;;23.08;70.88;98312.69;5071661;28;20037;-52
2023/07/28 03:28:26;;;;;;;17.00;14.55;;;;;;;23.05;70.50;98269.50;5071943;28;20024;-53
2023/07/28 03:30:51;;;;;;;17.55;14.43;;;;;;;23.22;69.86;98266.81;5072068;28;20421;-54
2023/07/28 03:33:17;;;;;;;17.77;14.52;;;;;;;23.33;69.74;98258.84;5072016;28;20036;-55
2023/07/28 03:35:42;;;;;;;20.30;14.50;;;;;;;23.47;69.21;98273.81;5070577;28;20029;-61
2023/07/28 03:38:08;;;;;;;15.65;13.82;;;;;;;23.57;68.38;98289.56;5070643;28;20064;-54
2023/07/28 03:40:34;;;;;;;18.13;13.98;;;;;;;23.54;67.79;98283.78;5071742;28;20048;-56
2023/07/28 03:42:59;;;;;;;17.48;13.15;;;;;;;23.54;67.67;98339.22;5072078;28;20062;-54
2023/07/28 03:45:25;;;;;;;16.35;14.18;;;;;;;23.49;68.08;98380.13;5071662;28;20448;-53
2023/07/28 03:47:51;;;;;;;15.85;13.40;;;;;;;23.39;68.10;98393.56;5071446;28;20071;-53
2023/07/28 03:50:16;;;;;;;15.57;13.95;;;;;;;23.28;68.76;98401.56;5072190;28;20028;-56
2023/07/28 03:52:42;;;;;;;17.48;14.27;;;;;;;23.19;69.12;98446.69;5071928;28;20356;-52
2023/07/28 03:55:07;;;;;;;20.08;13.90;;;;;;;23.16;69.09;98504.50;5071342;28;20414;-52
2023/07/28 03:57:33;;;;;;;23.48;14.85;;;;;;;22.88;71.19;98481.47;5071532;28;20034;-50
2023/07/28 03:59:58;;;;;;;16.08;14.18;;;;;;;22.51;72.79;98447.91;5070897;28;20174;-54
2023/07/28 04:02:24;;;;;;;20.02;14.40;;;;;;;22.25;74.75;98453.75;5071657;28;20038;-55
2023/07/28 04:04:57;;;;;;;18.58;14.43;;;;;;;22.17;75.39;98412.13;5072015;28;20020;-57
2023/07/28 04:07:22;;;;;;;20.50;14.27;;;;;;;21.93;76.58;98393.00;5075231;28;20048;-54
2023/07/28 04:09:48;;;;;;;16.98;14.15;;;;;;;21.83;76.16;98343.72;5075179;28;20052;-53
2023/07/28 04:12:14;;;;;;;19.67;14.20;;;;;;;21.74;77.16;98256.06;5073967;28;20360;-61
2023/07/28 04:14:40;;;;;;;19.65;14.63;;;;;;;21.70;77.56;98237.69;5074905;28;20032;-55
2023/07/28 04:17:06;;;;;;;17.52;14.70;;;;;;;21.62;77.76;98215.19;5075396;28;20072;-54
2023/07/28 04:19:33;;;;;;;18.35;14.82;;;;;;;21.69;76.79;98174.25;5074777;28;20039;-56
2023/07/28 04:22:00;;;;;;;17.23;14.75;;;;;;;21.68;76.85;98128.16;5075117;28;20040;-54
2023/07/28 04:24:26;;;;;;;22.05;16.05;;;;;;;21.45;78.49;98125.19;5075003;28;20117;-50
2023/07/28 04:26:52;;;;;;;18.98;15.52;;;;;;;21.23;78.89;98120.34;5073367;28;20025;-60
2023/07/28 04:29:18;;;;;;;20.75;15.27;;;;;;;21.40;78.38;98129.69;5074939;28;20036;-58
2023/07/28 04:31:44;;;;;;;20.98;15.60;;;;;;;21.37;77.88;98128.28;5074814;28;20025;-53
2023/07/28 04:34:09;;;;;;;19.48;15.23;;;;;;;21.31;78.77;98127.34;5074715;28;20495;-57
2023/07/28 04:36:35;;;;;;;22.20;16.30;;;;;;;21.31;79.13;98154.56;5073441;28;20040;-54
2023/07/28 04:39:00;;;;;;;19.52;16.35;;;;;;;21.31;78.96;98165.44;5075001;28;20033;-54
2023/07/28 04:41:25;;;;;;;21.35;16.52;;;;;;;21.24;78.22;98145.69;5074658;28;20028;-57
2023/07/28 04:43:51;;;;;;;18.40;15.88;;;;;;;21.23;78.78;98154.91;5073567;28;20452;-53
2023/07/28 04:46:17;;;;;;;18.60;16.20;;;;;;;21.47;78.46;98182.16;5075077;28;20043;-64
2023/07/28 04:48:42;;;;;;;18.58;16.65;;;;;;;21.49;78.81;98185.47;5075149;28;20036;-55
2023/07/28 04:51:08;;;;;;;18.88;16.23;;;;;;;21.57;78.03;98174.22;5072975;28;20029;-52
2023/07/28 04:53:33;;;;;;;21.83;17.15;;;;;;;21.64;78.12;98177.66;5073375;28;20367;-56
2023/07/28 04:55:59;;;;;;;22.30;17.35;;;;;;;21.64;78.25;98172.22;5074751;28;20062;-59
2023/07/28 04:58:24;;;;;;;22.85;17.38;;;;;;;21.73;78.15;98191.75;5073677;28;20024;-53
2023/07/28 05:00:50;;;;;;;22.45;17.45;;;;;;;21.83;77.79;98193.91;5073811;28;20491;-55
2023/07/28 05:03:15;;;;;;;22.95;17.52;;;;;;;21.96;78.06;98194.72;5074540;28;20416;-58
2023/07/28 05:05:44;;;;;;;21.58;18.17;;;;;;;22.20;77.27;98201.81;5074363;28;20025;-54
2023/07/28 05:08:10;;;;;;;19.30;17.30;;;;;;;22.41;76.23;98206.84;5074378;28;20483;-53
2023/07/28 05:10:36;;;;;;;22.00;18.40;;;;;;;22.73;75.40;98215.44;5073520;28;20409;-54
2023/07/28 05:13:04;;;;;;;22.60;18.05;;;;;;;23.05;74.80;98228.56;5073943;28;20111;-55
2023/07/28 05:15:30;;;;;;;20.63;16.90;;;;;;;23.32;72.89;98222.50;5074171;28;20084;-54
2023/07/28 05:17:55;;;;;;;20.30;17.30;;;;;;;23.59;71.01;98221.84;5074287;28;20411;-52
2023/07/28 05:20:21;;;;;;;21.98;17.48;;;;;;;23.79;70.66;98237.75;5073790;28;20345;-52
2023/07/28 05:22:47;;;;;;;23.38;17.10;;;;;;;23.98;69.50;98233.91;5073795;28;20056;-55
2023/07/28 05:25:12;;;;;;;19.85;16.27;;;;;;;24.09;68.77;98235.75;5074243;28;20380;-54
2023/07/28 05:27:38;;;;;;;20.88;16.45;;;;;;;24.20;68.06;98242.19;5074119;28;20071;-53
2023/07/28 05:30:04;;;;;;;20.83;16.30;;;;;;;24.25;67.93;98247.75;5073858;28;20029;-54
2023/07/28 05:32:31;;;;;;;23.70;16.13;;;;;;;24.33;67.92;98240.97;5073467;28;20028;-53
2023/07/28 05:34:57;;;;;;;20.77;16.83;;;;;;;24.45;67.99;98233.50;5073609;28;20131;-52
2023/07/28 05:37:22;;;;;;;18.77;16.10;;;;;;;25.04;66.37;98253.09;5074204;28;20360;-55
2023/07/28 05:39:48;;;;;;;19.27;14.70;;;;;;;26.32;62.85;98243.44;5073208;28;20452;-58
2023/07/28 05:42:13;;;;;;;21.30;16.23;;;;;;;27.50;58.53;98236.66;5073546;28;20062;-53
2023/07/28 05:44:39;;;;;;;16.23;14.52;;;;;;;28.50;54.93;98234.31;5073728;28;20412;-55
2023/07/28 05:47:05;;;;;;;17.98;13.60;;;;;;;29.49;53.01;98229.06;5072329;28;20028;-47
2023/07/28 05:49:30;;;;;;;19.42;12.82;;;;;;;29.60;51.61;98223.50;5073125;28;20376;-54
2023/07/28 05:51:56;;;;;;;20.73;13.30;;;;;;;29.47;51.54;98228.53;5072881;28;20107;-53
2023/07/28 05:54:21;;;;;;;15.57;12.25;;;;;;;29.20;52.41;98232.56;5073457;28;20143;-56
2023/07/28 05:56:47;;;;;;;17.15;12.88;;;;;;;28.76;52.94;98227.84;5073460;28;20361;-59
2023/07/28 05:59:12;;;;;;;17.48;12.35;;;;;;;28.33;54.04;98225.56;5073440;28;20444;-54
2023/07/28 06:01:38;;;;;;;19.05;13.43;;;;;;;28.05;54.63;98249.81;5071659;28;20017;-58
2023/07/28 06:04:04;;;;;;;14.85;11.88;;;;;;;27.76;55.17;98247.66;5073039;28;20060;-58
2023/07/28 06:06:29;;;;;;;18.58;13.50;;;;;;;27.99;54.01;98242.69;5073012;28;20067;-53
2023/07/28 06:08:55;;;;;;;15.68;11.63;;;;;;;28.54;52.61;98247.50;5073072;28;20036;-53
2023/07/28 06:11:21;;;;;;;12.18;10.98;;;;;;;29.48;49.35;98259.72;5073017;28;20472;-59
2023/07/28 06:13:47;;;;;;;18.35;12.27;;;;;;;29.72;48.61;98272.75;5072584;28;20036;-57
2023/07/28 06:16:13;;;;;;;20.80;10.80;;;;;;;29.29;48.88;98276.91;5072957;28;20032;-60
2023/07/28 06:18:39;;;;;;;14.55;11.13;;;;;;;28.74;50.46;98258.44;5073177;28;20452;-62
2023/07/28 06:21:04;;;;;;;17.27;11.10;;;;;;;28.18;51.63;98257.50;5072298;28;20029;-51
2023/07/28 06:23:30;;;;;;;14.50;11.02;;;;;;;27.83;53.58;98236.38;5068182;28;20360;-52
2023/07/28 06:25:56;;;;;;;12.85;10.25;;;;;;;28.26;52.73;98230.56;5071542;28;20024;-53
2023/07/28 06:28:21;;;;;;;15.23;10.18;;;;;;;28.88;50.99;98230.28;5071670;28;20123;-50
2023/07/28 06:30:47;;;;;;;10.73;9.55;;;;;;;29.37;49.57;98254.22;5072388;28;20039;-57
2023/07/28 06:33:13;;;;;;;12.10;9.27;;;;;;;29.84;47.88;98253.88;5072943;28;20024;-55
2023/07/28 06:35:38;;;;;;;13.10;9.40;;;;;;;30.15;47.81;98280.38;5072971;28;20028;-55
2023/07/28 06:38:04;;;;;;;13.48;10.00;;;;;;;29.81;47.40;98300.53;5072284;28;20475;-57
2023/07/28 06:40:30;;;;;;;13.07;9.00;;;;;;;29.08;49.41;98348.66;5071839;28;20123;-56
2023/07/28 06:42:55;;;;;;;11.05;9.40;;;;;;;28.17;51.85;98354.91;5071637;28;20024;-57
2023/07/28 06:45:21;;;;;;;12.32;8.90;;;;;;;27.35;53.87;98392.16;5073025;28;20058;-58
2023/07/28 06:47:46;;;;;;;16.00;9.00;;;;;;;26.53;56.39;98424.69;5071997;28;20032;-54
2023/07/28 06:50:12;;;;;;;9.73;8.25;;;;;;;25.81;58.25;98475.03;5072471;28;20090;-55
2023/07/28 06:52:38;;;;;;;14.00;8.43;;;;;;;25.19;60.74;98531.75;5071928;28;20059;-57
2023/07/28 06:55:04;;;;;;;16.27;8.65;;;;;;;24.65;62.11;98525.69;5072496;28;20433;-59
2023/07/28 06:57:30;;;;;;;15.15;9.13;;;;;;;24.15;63.68;98524.56;5053843;28;20079;-58
2023/07/28 06:59:56;;;;;;;13.27;8.25;;;;;;;23.76;66.06;98483.34;5057340;28;20039;-56
2023/07/28 07:02:22;;;;;;;12.02;7.85;;;;;;;23.32;66.76;98456.53;5072052;28;20036;-54
2023/07/28 07:04:48;;;;;;;13.18;8.00;;;;;;;22.96;68.79;98425.69;5064920;28;20111;-58
2023/07/28 07:07:13;;;;;;;12.85;7.35;;;;;;;22.77;69.19;98418.47;5069899;28;20028;-55
2023/07/28 07:09:40;;;;;;;11.10;7.65;;;;;;;22.59;70.87;98399.50;5071729;28;20421;-54
2023/07/28 07:12:10;;;;;;;10.43;7.47;;;;;;;22.59;70.31;98377.69;5071102;28;20043;-55
2023/07/28 07:14:36;;;;;;;12.30;7.30;;;;;;;22.45;70.77;98350.66;5071102;28;20028;-50
2023/07/28 07:17:01;;;;;;;10.25;7.53;;;;;;;22.39;71.25;98340.69;5069081;28;20110;-59
2023/07/28 07:19:28;;;;;;;11.18;7.90;;;;;;;22.43;71.20;98313.78;5070868;28;20025;-54
2023/07/28 07:21:54;;;;;;;8.77;7.60;;;;;;;22.42;71.01;98315.66;5070657;28;20034;-60
2023/07/28 07:24:20;;;;;;;11.07;7.82;;;;;;;22.46;71.19;98335.09;5071468;28;20082;-54
2023/07/28 07:26:46;;;;;;;10.77;7.68;;;;;;;22.57;71.47;98331.59;5070077;28;20385;-54
2023/07/28 07:29:12;;;;;;;9.70;7.38;;;;;;;22.72;69.98;98303.78;5071546;28;20024;-59
2023/07/28 07:31:38;;;;;;;8.93;6.93;;;;;;;22.84;69.83;98292.00;5059631;28;20033;-56
2023/07/28 07:34:04;;;;;;;11.13;7.38;;;;;;;22.74;69.71;98277.09;5059912;28;20051;-57
2023/07/28 07:36:30;;;;;;;12.50;9.02;;;;;;;22.94;69.36;98297.69;5070807;28;20421;-55
2023/07/28 07:38:55;;;;;;;15.48;9.20;;;;;;;23.00;70.20;98326.72;5072418;28;20043;-55
2023/07/28 07:41:22;;;;;;;11.40;9.23;;;;;;;23.07;70.35;98343.78;5074386;28;20107;-53
2023/07/28 07:43:49;;;;;;;16.85;9.68;;;;;;;22.75;70.07;98278.75;5075294;28;20033;-56
2023/07/28 07:46:15;;;;;;;15.07;8.65;;;;;;;23.12;69.46;98329.41;5075687;28;20060;-53
2023/07/28 07:48:41;;;;;;;17.10;8.32;;;;;;;23.20;69.58;98322.75;5075033;28;20039;-55
2023/07/28 07:51:08;;;;;;;15.88;8.50;;;;;;;23.36;68.96;98343.00;5074708;28;20441;-56
2023/07/28 07:53:36;;;;;;;12.85;8.55;;;;;;;23.45;68.62;98337.97;5075107;28;20104;-53
2023/07/28 07:56:02;;;;;;;13.80;8.60;;;;;;;23.61;68.03;98345.38;5075263;28;20029;-53
2023/07/28 07:58:28;;;;;;;10.85;8.18;;;;;;;23.74;68.48;98336.03;5072646;28;20460;-51
2023/07/28 08:00:55;;;;;;;13.50;9.25;;;;;;;23.97;67.67;98341.59;5074318;28;20103;-52
2023/07/28 08:03:20;;;;;;;11.10;8.20;;;;;;;24.10;65.23;98324.88;5074877;28;20028;-50
2023/07/28 08:05:46;;;;;;;11.52;8.18;;;;;;;24.61;63.75;98340.41;5074533;28;20024;-54
2023/07/28 08:08:11;;;;;;;11.45;7.90;;;;;;;25.21;63.17;98338.72;5074046;28;20036;-53
2023/07/28 08:10:39;;;;;;;10.68;8.27;;;;;;;26.06;60.94;98345.56;5067593;28;20376;-53
2023/07/28 08:13:04;;;;;;;12.77;8.00;;;;;;;27.20;57.08;98343.50;5066407;28;20407;-55
2023/07/28 08:15:30;;;;;;;12.63;7.55;;;;;;;28.37;52.82;98331.22;5074033;28;20452;-56
2023/07/28 08:17:55;;;;;;;12.57;7.63;;;;;;;29.55;49.96;98347.63;5073402;28;20040;-56
2023/07/28 08:20:20;;;;;;;11.18;7.05;;;;;;;29.83;48.02;98329.47;5074662;28;20039;-53
2023/07/28 08:22:46;;;;;;;7.90;6.68;;;;;;;30.57;46.16;98336.81;5074478;28;20029;-54
2023/07/28 08:25:11;;;;;;;8.27;6.18;;;;;;;31.33;44.48;98338.94;5073563;28;20401;-57
2023/07/28 08:27:37;;;;;;;9.45;6.05;;;;;;;31.62;42.69;98339.94;5072856;28;20020;-57
2023/07/28 08:30:04;;;;;;;8.63;6.53;;;;;;;31.52;43.83;98343.66;5074329;28;20471;-57
2023/07/28 08:32:30;;;;;;;11.52;7.07;;;;;;;31.45;44.23;98341.28;5073898;28;20081;-54
2023/07/28 08:34:55;;;;;;;8.38;6.35;;;;;;;31.40;43.88;98360.72;5073633;28;20155;-54
2023/07/28 08:37:21;;;;;;;7.95;5.47;;;;;;;31.18;43.45;98352.97;5075068;28;20039;-54
2023/07/28 08:39:46;;;;;;;9.65;6.00;;;;;;;31.03;43.95;98382.44;5074203;28;20468;-53
2023/07/28 08:42:12;;;;;;;9.68;6.13;;;;;;;30.88;44.47;98368.84;5073881;28;20036;-56
2023/07/28 08:44:37;;;;;;;9.98;5.97;;;;;;;30.71;44.34;98369.28;5074022;28;20024;-54
2023/07/28 08:47:04;;;;;;;7.63;5.93;;;;;;;30.12;45.76;98381.13;5074361;28;20037;-54
2023/07/28 08:49:36;;;;;;;6.95;5.60;;;;;;;29.51;47.20;98386.75;5073182;28;20123;-55
2023/07/28 08:52:03;;;;;;;8.48;5.53;;;;;;;28.79;48.89;98387.88;5073301;28;20061;-61
2023/07/28 08:54:29;;;;;;;8.23;5.47;;;;;;;28.37;49.85;98391.78;5074085;28;20405;-59
2023/07/28 08:56:57;;;;;;;8.52;6.10;;;;;;;28.08;50.86;98373.88;5074537;28;20059;-61
2023/07/28 08:59:26;;;;;;;7.03;5.85;;;;;;;27.96;51.83;98378.00;5073770;28;20032;-61
2023/07/28 09:01:53;;;;;;;11.57;5.97;;;;;;;27.90;51.48;98383.50;5073844;28;20041;-55
2023/07/28 09:04:20;;;;;;;7.50;6.63;;;;;;;27.91;51.59;98396.16;5073549;28;20030;-58
2023/07/28 09:06:49;;;;;;;8.77;6.45;;;;;;;27.93;51.25;98395.88;5073789;28;20515;-61
2023/07/28 09:09:16;;;;;;;8.95;7.20;;;;;;;27.76;52.41;98394.22;5073133;28;20389;-62
2023/07/28 09:11:52;;;;;;;9.75;7.38;;;;;;;27.96;52.38;98397.25;5072944;28;20048;-56
2023/07/28 09:14:21;;;;;;;10.82;6.60;;;;;;;27.85;52.13;98404.66;5073152;28;20063;-58
2023/07/28 09:16:47;;;;;;;10.07;6.68;;;;;;;27.74;52.20;98401.91;5073410;28;20103;-60
2023/07/28 09:19:13;;;;;;;10.27;7.10;;;;;;;27.53;52.92;98403.78;5073545;28;20112;-60
2023/07/28 09:21:42;;;;;;;8.80;6.68;;;;;;;27.35;53.23;98413.31;5073771;28;20029;-60
2023/07/28 09:24:13;;;;;;;7.30;6.60;;;;;;;27.08;54.09;98415.13;5073352;28;20115;-62
2023/07/28 09:26:45;;;;;;;8.18;6.55;;;;;;;26.76;54.80;98426.19;5053865;28;20033;-59
2023/07/28 09:29:20;;;;;;;8.05;6.97;;;;;;;25.94;55.75;98362.19;5068310;28;20451;-59
2023/07/28 09:31:50;;;;;;;8.60;7.20;;;;;;;25.99;56.70;98451.06;5072581;28;20102;-56
2023/07/28 09:34:28;;;;;;;8.15;7.03;;;;;;;25.81;58.02;98455.84;5071371;28;20044;-58
2023/07/28 09:36:58;;;;;;;8.82;7.13;;;;;;;25.48;59.36;98474.91;5073483;28;20400;-56
2023/07/28 09:39:25;;;;;;;8.07;7.38;;;;;;;25.40;59.51;98494.50;5073198;28;20086;-55
2023/07/28 09:41:51;;;;;;;11.98;8.65;;;;;;;25.31;60.19;98490.56;5072401;28;20102;-55
2023/07/28 09:44:16;;;;;;;13.13;8.45;;;;;;;25.26;60.06;98483.09;5072634;28;20052;-57
2023/07/28 09:46:56;;;;;;;10.50;7.88;;;;;;;25.39;60.56;98481.88;5071835;28;20079;-55
2023/07/28 09:49:35;;;;;;;10.73;8.82;;;;;;;25.24;60.00;98485.25;5073133;28;20032;-57
2023/07/28 09:52:05;;;;;;;10.38;9.27;;;;;;;25.06;60.45;98451.59;5071725;28;20036;-59
2023/07/28 09:54:34;;;;;;;9.80;8.80;;;;;;;24.85;61.75;98452.41;5072944;28;20097;-58
2023/07/28 09:57:00;;;;;;;10.52;9.35;;;;;;;24.88;61.82;98473.81;5072852;28;20127;-59
2023/07/28 09:59:35;;;;;;;11.02;8.98;;;;;;;24.89;62.04;98483.69;5072306;28;20403;-59
2023/07/28 10:02:01;;;;;;;12.52;9.40;;;;;;;24.83;62.35;98480.03;5071962;28;20084;-60
2023/07/28 10:04:27;;;;;;;11.73;9.73;;;;;;;24.71;63.33;98450.00;5071283;28;20029;-66
2023/07/28 10:06:56;;;;;;;11.35;10.13;;;;;;;24.76;62.75;98455.56;5071821;28;20463;-55
2023/07/28 10:09:25;;;;;;;10.35;9.35;;;;;;;24.82;62.15;98455.63;5073008;28;20032;-61
2023/07/28 10:11:52;;;;;;;10.65;9.52;;;;;;;24.79;62.65;98466.00;5072474;28;20028;-58
2023/07/28 10:14:31;;;;;;;13.50;9.85;;;;;;;24.90;62.74;98475.19;5068450;28;20037;-62
2023/07/28 10:16:58;;;;;;;11.02;9.90;;;;;;;24.86;62.54;98490.47;5070571;28;20407;-70
2023/07/28 10:19:36;;;;;;;10.77;9.68;;;;;;;24.85;63.04;98488.00;5056312;28;20064;-63
2023/07/28 10:22:07;;;;;;;10.23;9.23;;;;;;;24.81;62.75;98493.13;5071034;28;20460;-63
2023/07/28 10:25:00;;;;;;;11.68;9.73;;;;;;;24.82;63.36;98488.47;5071726;28;20034;-57
2023/07/28 10:27:36;;;;;;;11.88;10.57;;;;;;;24.56;64.16;98449.75;5071538;28;20111;-58
2023/07/28 10:30:04;;;;;;;11.52;10.43;;;;;;;24.50;64.10;98457.88;5070377;28;20044;-59
2023/07/28 10:32:44;;;;;;;13.38;10.85;;;;;;;24.36;64.57;98429.22;5071404;28;20410;-62
2023/07/28 10:35:23;;;;;;;12.77;11.35;;;;;;;24.50;64.99;98443.38;5069028;28;20051;-53
2023/07/28 10:37:49;;;;;;;11.98;10.40;;;;;;;24.38;65.24;98432.53;5071354;28;20044;-60
2023/07/28 10:40:34;;;;;;;13.68;11.02;;;;;;;24.51;65.10;98421.22;5068088;28;20360;-60
2023/07/28 10:43:04;;;;;;;12.30;11.00;;;;;;;24.43;65.59;98412.63;5071411;28;20037;-59
2023/07/28 10:45:32;;;;;;;12.23;11.02;;;;;;;24.41;65.97;98412.03;5069215;28;20177;-61
2023/07/28 10:48:03;;;;;;;13.93;11.50;;;;;;;24.40;66.02;98407.66;5071701;28;20020;-62
2023/07/28 10:50:31;;;;;;;12.18;10.75;;;;;;;24.44;64.69;98403.31;5072357;28;20437;-61
2023/07/28 10:52:57;;;;;;;13.00;11.68;;;;;;;24.49;65.69;98397.97;5073136;28;20037;-60
2023/07/28 10:55:25;;;;;;;13.65;11.73;;;;;;;24.69;65.35;98411.09;5071817;28;20039;-60
2023/07/28 10:57:53;;;;;;;15.23;12.40;;;;;;;24.79;63.75;98424.13;5071218;28;20064;-57
2023/07/28 11:00:21;;;;;;;14.00;11.90;;;;;;;24.85;64.53;98406.69;5071642;28;20098;-60
2023/07/28 11:02:52;;;;;;;13.40;12.00;;;;;;;25.01;64.09;98409.66;5071946;28;20032;-61
2023/07/28 11:05:29;;;;;;;13.88;12.48;;;;;;;25.09;63.95;98390.03;5071785;28;20112;-57
2023/07/28 11:07:57;;;;;;;13.57;11.90;;;;;;;25.13;64.17;98373.94;5072075;28;20434;-59
2023/07/28 11:10:24;;;;;;;13.80;12.50;;;;;;;25.16;64.26;98367.94;5071880;28;20472;-60
2023/07/28 11:12:52;;;;;;;12.90;11.55;;;;;;;25.20;64.24;98356.22;5071994;28;20033;-60
2023/07/28 11:15:18;;;;;;;14.20;10.73;;;;;;;25.21;63.94;98357.88;5073865;28;20459;-59
2023/07/28 11:17:49;;;;;;;13.13;9.77;;;;;;;25.20;63.17;98369.09;5075059;28;20040;-61
2023/07/28 11:20:23;;;;;;;13.32;8.88;;;;;;;25.27;62.28;98377.91;5076156;28;20025;-60
2023/07/28 11:23:03;;;;;;;11.82;9.52;;;;;;;25.34;62.65;98421.56;5076243;28;20041;-60